Time;durP1;ratioP1;P1;durP2;ratioP2;P2;SDS_P1;SDS_P2;PMS_P1;PMS_P2;Temp;Humidity;BMP_temperature;BMP_pressure;BME280_temperature;BME280_humidity;BME280_pressure;Samples;Min_cycle;Max_cycle;Signal;HPM_P1;HPM_P2
2022/09/18 00:01:30;;;;;;;0.50;0.50;;;12.20;21.40;;;;;;5108924;27;34088;-75
2022/09/18 00:03:59;;;;;;;0.75;0.50;;;12.20;21.90;;;;;;5109144;27;34199;-74
2022/09/18 00:06:29;;;;;;;0.95;0.70;;;12.20;21.50;;;;;;5126957;27;34017;-74
2022/09/18 00:08:57;;;;;;;0.80;0.57;;;12.20;21.80;;;;;;5107687;27;34274;-74
2022/09/18 00:11:24;;;;;;;1.05;0.75;;;12.20;21.70;;;;;;5091961;27;34347;-74
2022/09/18 00:13:51;;;;;;;0.43;0.40;;;12.20;21.50;;;;;;5091711;27;35667;-76
2022/09/18 00:16:20;;;;;;;0.70;0.50;;;12.20;21.50;;;;;;5074907;27;34066;-75
2022/09/18 00:18:46;;;;;;;1.90;0.80;;;12.10;21.00;;;;;;5108760;27;34166;-75
2022/09/18 00:21:16;;;;;;;0.50;0.50;;;12.10;21.50;;;;;;5108622;27;34166;-75
2022/09/18 00:23:43;;;;;;;2.85;0.40;;;12.10;21.30;;;;;;5126397;27;34494;-74
2022/09/18 00:26:10;;;;;;;0.80;0.55;;;12.10;21.60;;;;;;5126971;27;34415;-75
2022/09/18 00:28:37;;;;;;;0.63;0.63;;;12.10;21.40;;;;;;5127583;27;34052;-79
2022/09/18 00:31:07;;;;;;;0.68;0.68;;;12.10;21.50;;;;;;5108262;27;34178;-74
2022/09/18 00:33:33;;;;;;;2.88;0.68;;;12.10;21.60;;;;;;5124995;27;36416;-75
2022/09/18 00:36:01;;;;;;;0.57;0.52;;;12.10;22.30;;;;;;5126915;27;34117;-74
2022/09/18 00:38:30;;;;;;;2.05;0.60;;;12.10;21.80;;;;;;5108312;27;34153;-75
2022/09/18 00:40:57;;;;;;;0.75;0.70;;;12.10;21.60;;;;;;5126785;27;34311;-75
2022/09/18 00:43:26;;;;;;;2.30;0.80;;;12.10;21.70;;;;;;5091360;27;35939;-76
2022/09/18 00:45:58;;;;;;;1.02;0.93;;;12.10;22.00;;;;;;5108281;27;34151;-74
2022/09/18 00:48:34;;;;;;;0.85;0.85;;;12.10;21.90;;;;;;5091275;27;34136;-76
2022/09/18 00:51:00;;;;;;;4.15;1.00;;;12.00;21.90;;;;;;5108221;27;34152;-74
2022/09/18 00:53:27;;;;;;;0.88;0.88;;;12.10;22.00;;;;;;5124940;27;35622;-75
2022/09/18 00:55:55;;;;;;;1.60;0.90;;;12.10;21.70;;;;;;5108008;27;34118;-74
2022/09/18 00:58:21;;;;;;;3.85;1.08;;;12.10;21.50;;;;;;5108075;27;34123;-75
2022/09/18 01:00:47;;;;;;;2.55;1.27;;;12.10;21.80;;;;;;5107969;27;34311;-74
2022/09/18 01:03:13;;;;;;;0.90;0.90;;;12.20;22.10;;;;;;5090976;27;34555;-75
2022/09/18 01:05:55;;;;;;;3.92;1.10;;;12.20;22.30;;;;;;5090692;27;34118;-74
2022/09/18 01:08:35;;;;;;;0.90;0.90;;;12.20;21.70;;;;;;5092260;27;34017;-75
2022/09/18 01:11:22;;;;;;;1.20;1.10;;;12.20;22.10;;;;;;5108067;27;34198;-75
2022/09/18 01:14:09;;;;;;;4.05;1.20;;;12.20;22.10;;;;;;5125398;27;34295;-75
2022/09/18 01:16:49;;;;;;;2.00;1.00;;;12.20;22.10;;;;;;5107653;27;34134;-75
2022/09/18 01:19:43;;;;;;;3.58;1.00;;;12.30;22.00;;;;;;5107632;27;34266;-75
2022/09/18 01:22:40;;;;;;;3.38;1.13;;;12.30;22.00;;;;;;5107826;27;34397;-75
2022/09/18 01:25:19;;;;;;;3.58;1.00;;;12.30;21.90;;;;;;5107378;27;35604;-75
2022/09/18 01:28:01;;;;;;;2.63;1.10;;;12.30;22.20;;;;;;5107595;27;34136;-75
2022/09/18 01:30:27;;;;;;;0.93;0.93;;;12.30;21.60;;;;;;5106653;27;34520;-75
2022/09/18 01:32:59;;;;;;;2.92;1.20;;;12.30;22.00;;;;;;5107978;27;34298;-75
2022/09/18 01:35:38;;;;;;;2.70;1.10;;;12.30;21.60;;;;;;5125238;27;34463;-74
2022/09/18 01:38:18;;;;;;;3.88;1.20;;;12.30;21.90;;;;;;5108029;27;34129;-75
2022/09/18 01:41:02;;;;;;;1.58;1.10;;;12.30;21.60;;;;;;5073841;27;34362;-75
2022/09/18 01:43:30;;;;;;;2.25;1.15;;;12.30;21.70;;;;;;5106908;27;34342;-75
2022/09/18 01:46:03;;;;;;;2.75;0.90;;;12.20;21.20;;;;;;5107014;27;35982;-75
2022/09/18 01:48:35;;;;;;;2.03;1.08;;;12.30;21.50;;;;;;5107667;27;34102;-76
2022/09/18 01:51:09;;;;;;;3.53;0.80;;;12.20;21.30;;;;;;5090483;27;34272;-75
2022/09/18 01:53:41;;;;;;;0.95;0.90;;;12.20;21.20;;;;;;5107843;27;34633;-74
2022/09/18 01:56:14;;;;;;;3.28;1.00;;;12.20;21.20;;;;;;5125172;27;34401;-75
2022/09/18 01:58:41;;;;;;;1.05;0.80;;;12.20;21.40;;;;;;5073927;27;34269;-75
2022/09/18 02:01:12;;;;;;;1.50;0.85;;;12.20;21.30;;;;;;5107036;27;34359;-75
2022/09/18 02:03:44;;;;;;;1.35;0.80;;;12.10;21.20;;;;;;5089719;27;34351;-75
2022/09/18 02:06:18;;;;;;;1.30;1.00;;;12.10;21.30;;;;;;5106914;27;35710;-75
2022/09/18 02:08:47;;;;;;;2.47;0.80;;;12.10;21.00;;;;;;5107126;27;34146;-75
2022/09/18 02:11:16;;;;;;;1.60;0.77;;;12.20;21.30;;;;;;5106291;27;34104;-75
2022/09/18 02:13:55;;;;;;;2.50;0.70;;;12.20;21.70;;;;;;5125142;27;34310;-75
2022/09/18 02:16:32;;;;;;;0.70;0.70;;;12.10;21.30;;;;;;5107644;27;35039;-75
2022/09/18 02:19:06;;;;;;;1.20;0.80;;;12.10;21.50;;;;;;5124994;27;34256;-77
2022/09/18 02:21:33;;;;;;;2.40;0.70;;;12.10;21.50;;;;;;5106355;27;34162;-75
2022/09/18 02:24:09;;;;;;;1.77;0.90;;;12.20;21.00;;;;;;5106412;27;34360;-76
2022/09/18 02:26:38;;;;;;;1.63;0.80;;;12.10;21.50;;;;;;5106429;27;35990;-75
2022/09/18 02:29:05;;;;;;;1.65;0.68;;;12.10;21.20;;;;;;5088969;27;34192;-75
2022/09/18 02:31:32;;;;;;;2.65;0.88;;;12.10;21.90;;;;;;5106608;27;34073;-76
2022/09/18 02:33:58;;;;;;;0.63;0.63;;;12.10;21.50;;;;;;5090451;27;34091;-75
2022/09/18 02:36:44;;;;;;;2.13;0.70;;;12.10;21.60;;;;;;5123157;27;35624;-75
2022/09/18 02:39:34;;;;;;;1.35;0.73;;;12.10;22.10;;;;;;5106787;27;34093;-75
2022/09/18 02:42:30;;;;;;;0.98;0.60;;;12.10;22.10;;;;;;5125154;27;34163;-75
2022/09/18 02:45:13;;;;;;;2.95;0.75;;;12.10;22.40;;;;;;5124931;27;33984;-75
2022/09/18 02:48:03;;;;;;;1.23;0.70;;;12.10;22.10;;;;;;5073653;27;35917;-75
2022/09/18 02:50:48;;;;;;;1.42;0.40;;;12.10;22.20;;;;;;5124708;27;34039;-75
2022/09/18 02:53:24;;;;;;;1.45;0.50;;;12.00;21.70;;;;;;5108459;27;34174;-76
2022/09/18 02:55:56;;;;;;;0.88;0.47;;;12.00;21.90;;;;;;5124876;27;34315;-76
2022/09/18 02:58:42;;;;;;;0.82;0.47;;;12.00;21.30;;;;;;5124325;27;34317;-75
2022/09/18 03:01:09;;;;;;;2.70;0.70;;;12.00;21.90;;;;;;5106080;27;34224;-76
2022/09/18 03:03:37;;;;;;;1.55;0.70;;;12.00;21.30;;;;;;5089403;27;34137;-76
2022/09/18 03:06:05;;;;;;;0.60;0.60;;;12.00;21.70;;;;;;5106652;27;34190;-75
2022/09/18 03:08:31;;;;;;;0.65;0.47;;;12.00;21.40;;;;;;5106063;27;34446;-75
2022/09/18 03:10:57;;;;;;;0.70;0.68;;;12.00;21.50;;;;;;5088978;27;34349;-75
2022/09/18 03:13:23;;;;;;;0.50;0.50;;;11.90;21.10;;;;;;5105915;27;34282;-75
2022/09/18 03:15:49;;;;;;;2.20;0.68;;;11.90;21.90;;;;;;5106242;27;34156;-76
2022/09/18 03:18:15;;;;;;;1.60;0.77;;;11.90;22.60;;;;;;5105903;27;35603;-75
2022/09/18 03:20:42;;;;;;;0.82;0.70;;;11.90;22.10;;;;;;5124141;27;34239;-75
2022/09/18 03:23:09;;;;;;;0.50;0.50;;;11.90;21.90;;;;;;5089033;27;34148;-75
2022/09/18 03:25:35;;;;;;;2.05;0.57;;;11.90;22.00;;;;;;5105918;27;34089;-75
2022/09/18 03:28:02;;;;;;;0.57;0.57;;;12.00;22.00;;;;;;5106580;27;35808;-75
2022/09/18 03:30:28;;;;;;;0.77;0.77;;;11.90;22.00;;;;;;5108734;27;34105;-75
2022/09/18 03:32:54;;;;;;;4.60;0.80;;;11.90;22.10;;;;;;5109585;27;34031;-76
2022/09/18 03:35:21;;;;;;;0.60;0.60;;;11.90;22.20;;;;;;5127934;27;34091;-75
2022/09/18 03:37:47;;;;;;;1.50;0.70;;;11.90;22.30;;;;;;5109116;27;35825;-75
2022/09/18 03:40:14;;;;;;;2.30;0.82;;;11.90;22.60;;;;;;5126319;27;34273;-75
2022/09/18 03:42:43;;;;;;;1.35;0.70;;;11.90;22.00;;;;;;5109117;27;34485;-75
2022/09/18 03:45:10;;;;;;;1.95;0.98;;;11.90;22.40;;;;;;5126687;27;34146;-75
2022/09/18 03:47:36;;;;;;;2.15;1.10;;;11.80;22.00;;;;;;5108742;27;35776;-75
2022/09/18 03:50:05;;;;;;;1.85;0.70;;;11.80;22.40;;;;;;5091983;27;34265;-76
2022/09/18 03:52:32;;;;;;;0.68;0.68;;;11.70;22.60;;;;;;5108652;27;34128;-75
2022/09/18 03:54:58;;;;;;;1.75;0.80;;;11.70;22.50;;;;;;5109001;27;34045;-75
2022/09/18 03:57:24;;;;;;;0.68;0.60;;;11.70;22.30;;;;;;5109010;27;35783;-76
2022/09/18 03:59:50;;;;;;;0.82;0.77;;;11.60;22.10;;;;;;5109578;27;34221;-75
2022/09/18 04:02:16;;;;;;;2.60;0.82;;;11.60;22.20;;;;;;5092237;27;34074;-75
2022/09/18 04:04:42;;;;;;;2.92;0.90;;;11.50;22.60;;;;;;5109628;27;34076;-75
2022/09/18 04:07:08;;;;;;;2.53;1.00;;;11.50;22.40;;;;;;5092262;27;34964;-75
2022/09/18 04:09:34;;;;;;;1.85;1.13;;;11.50;23.30;;;;;;5108061;27;34182;-76
2022/09/18 04:12:00;;;;;;;3.33;1.00;;;11.50;22.50;;;;;;5127326;27;34423;-75
2022/09/18 04:14:26;;;;;;;3.53;1.10;;;11.50;22.40;;;;;;5093982;27;34144;-76
2022/09/18 04:16:52;;;;;;;2.40;1.00;;;11.50;23.00;;;;;;5108557;27;35699;-75
2022/09/18 04:19:18;;;;;;;4.25;1.00;;;11.60;22.50;;;;;;5074848;27;34385;-75
2022/09/18 04:21:44;;;;;;;3.55;1.00;;;11.60;22.70;;;;;;5108246;27;33998;-75
2022/09/18 04:24:10;;;;;;;2.72;0.90;;;11.60;22.30;;;;;;5109053;27;34030;-75
2022/09/18 04:26:36;;;;;;;1.67;0.90;;;11.60;22.50;;;;;;5108192;27;36569;-75
2022/09/18 04:29:03;;;;;;;2.42;1.00;;;11.70;22.40;;;;;;5108263;27;34315;-75
2022/09/18 04:31:29;;;;;;;2.17;0.90;;;11.70;22.30;;;;;;5091046;27;34390;-76
2022/09/18 04:33:55;;;;;;;2.75;1.13;;;11.70;22.40;;;;;;5127010;27;34174;-75
2022/09/18 04:36:21;;;;;;;1.23;0.90;;;11.70;22.50;;;;;;5108236;27;36122;-75
2022/09/18 04:38:47;;;;;;;2.28;1.00;;;11.70;22.30;;;;;;5108512;27;34096;-76
2022/09/18 04:41:13;;;;;;;2.28;1.20;;;11.70;22.30;;;;;;5108511;27;34197;-75
2022/09/18 04:43:39;;;;;;;2.38;1.40;;;11.70;22.30;;;;;;5126393;27;33986;-75
2022/09/18 04:46:05;;;;;;;4.15;1.20;;;11.80;22.30;;;;;;5074460;27;35607;-75
2022/09/18 04:48:31;;;;;;;1.52;0.98;;;11.70;22.10;;;;;;5108473;27;34231;-75
2022/09/18 04:50:57;;;;;;;1.42;1.00;;;11.80;22.00;;;;;;5108239;27;34152;-75
2022/09/18 04:53:23;;;;;;;0.85;0.65;;;11.80;22.00;;;;;;5108294;27;34591;-76
2022/09/18 04:55:48;;;;;;;1.33;0.90;;;11.80;22.00;;;;;;5091167;27;35589;-75
2022/09/18 04:58:17;;;;;;;1.15;0.85;;;11.80;22.00;;;;;;5091372;27;35248;-76
2022/09/18 05:00:43;;;;;;;5.03;1.10;;;11.80;22.70;;;;;;5125936;27;34084;-75
2022/09/18 05:03:09;;;;;;;2.22;1.02;;;11.80;21.90;;;;;;5107872;27;34072;-75
2022/09/18 05:05:35;;;;;;;2.13;0.90;;;11.70;21.60;;;;;;5108127;27;35426;-75
2022/09/18 05:08:01;;;;;;;2.88;1.00;;;11.70;21.90;;;;;;5126426;27;34121;-76
2022/09/18 05:10:28;;;;;;;1.25;0.65;;;11.60;21.80;;;;;;5108253;27;34216;-79
2022/09/18 05:12:54;;;;;;;1.85;0.80;;;11.60;22.60;;;;;;5107796;27;34056;-75
2022/09/18 05:15:21;;;;;;;2.65;0.88;;;11.50;22.00;;;;;;5107971;27;34339;-76
2022/09/18 05:17:47;;;;;;;4.53;0.90;;;11.50;21.90;;;;;;5073951;27;34239;-75
2022/09/18 05:20:13;;;;;;;2.88;0.90;;;11.50;21.90;;;;;;5108030;27;34259;-74
2022/09/18 05:22:46;;;;;;;4.22;0.93;;;11.40;21.80;;;;;;5107245;27;34131;-74
2022/09/18 05:25:12;;;;;;;0.85;0.70;;;11.40;22.00;;;;;;5125621;27;34372;-74
2022/09/18 05:27:38;;;;;;;1.73;1.00;;;11.40;21.90;;;;;;5107328;27;34399;-76
2022/09/18 05:30:05;;;;;;;1.73;1.00;;;11.30;22.00;;;;;;5089987;27;34199;-76
2022/09/18 05:32:31;;;;;;;4.20;0.98;;;11.30;22.20;;;;;;5125917;27;34307;-75
2022/09/18 05:34:57;;;;;;;1.67;0.70;;;11.30;22.20;;;;;;5107300;27;35497;-75
2022/09/18 05:37:23;;;;;;;1.50;0.88;;;11.20;22.10;;;;;;5125648;27;34170;-75
2022/09/18 05:39:49;;;;;;;1.15;0.70;;;11.20;22.20;;;;;;5125235;27;34151;-74
2022/09/18 05:42:15;;;;;;;2.33;0.70;;;11.20;22.00;;;;;;5107580;27;34254;-75
2022/09/18 05:44:41;;;;;;;2.55;0.98;;;11.10;22.10;;;;;;5125385;27;34191;-75
2022/09/18 05:47:07;;;;;;;0.80;0.70;;;11.10;22.10;;;;;;5090274;27;34393;-75
2022/09/18 05:49:33;;;;;;;2.03;0.80;;;11.10;22.20;;;;;;5090076;27;34146;-74
2022/09/18 05:51:59;;;;;;;0.77;0.55;;;11.10;22.30;;;;;;5106127;27;34079;-75
2022/09/18 05:54:24;;;;;;;2.08;0.80;;;11.00;22.30;;;;;;5106680;27;35651;-75
2022/09/18 05:56:52;;;;;;;3.78;0.82;;;11.00;22.20;;;;;;5090313;27;34089;-75
2022/09/18 05:59:18;;;;;;;4.07;0.80;;;11.00;22.50;;;;;;5106930;27;34247;-74
2022/09/18 06:01:44;;;;;;;0.63;0.57;;;11.00;22.30;;;;;;5089853;27;34191;-75
2022/09/18 06:04:10;;;;;;;2.35;0.80;;;11.00;22.60;;;;;;5107044;27;35591;-75
2022/09/18 06:06:36;;;;;;;1.83;0.80;;;11.00;22.40;;;;;;5107046;27;34167;-75
2022/09/18 06:09:02;;;;;;;0.70;0.70;;;11.00;22.20;;;;;;5106943;27;34330;-75
2022/09/18 06:11:28;;;;;;;3.72;0.77;;;11.10;22.30;;;;;;5125003;27;34241;-75
2022/09/18 06:13:54;;;;;;;0.75;0.70;;;11.10;22.30;;;;;;5089657;27;35606;-75
2022/09/18 06:16:20;;;;;;;4.43;0.90;;;11.10;22.20;;;;;;5072925;27;34304;-74
2022/09/18 06:18:46;;;;;;;1.77;0.88;;;11.20;22.20;;;;;;5106816;27;34227;-74
2022/09/18 06:21:13;;;;;;;2.05;1.00;;;11.30;22.00;;;;;;5125625;27;34275;-76
2022/09/18 06:23:41;;;;;;;2.08;0.93;;;11.40;22.00;;;;;;5105987;27;36620;-75
2022/09/18 06:26:07;;;;;;;3.50;0.77;;;11.50;22.00;;;;;;5090151;27;34169;-75
2022/09/18 06:28:33;;;;;;;1.02;0.80;;;11.60;22.10;;;;;;5106150;27;34312;-75
2022/09/18 06:31:01;;;;;;;0.70;0.70;;;11.70;21.90;;;;;;5106542;27;34468;-74
2022/09/18 06:33:35;;;;;;;2.10;0.90;;;11.90;21.50;;;;;;5089562;27;35993;-75
2022/09/18 06:36:05;;;;;;;0.98;0.75;;;12.10;21.60;;;;;;5107214;27;34136;-75
2022/09/18 06:38:31;;;;;;;2.22;0.95;;;12.20;21.20;;;;;;5090273;27;34215;-75
2022/09/18 06:40:57;;;;;;;2.25;0.80;;;12.30;21.10;;;;;;5089701;27;34496;-75
2022/09/18 06:43:23;;;;;;;4.13;0.90;;;12.30;21.00;;;;;;5106175;27;35498;-75
2022/09/18 06:45:52;;;;;;;4.43;0.85;;;12.40;20.80;;;;;;5107096;27;34327;-75
2022/09/18 06:48:18;;;;;;;1.00;0.90;;;12.40;20.40;;;;;;5106410;27;34155;-75
2022/09/18 06:50:51;;;;;;;9.73;1.25;;;12.40;20.80;;;;;;5089016;27;34232;-75
2022/09/18 06:53:17;;;;;;;2.08;0.93;;;12.40;20.60;;;;;;5125431;27;35397;-76
2022/09/18 06:55:42;;;;;;;2.90;1.60;;;12.50;20.70;;;;;;5106481;27;34164;-76
2022/09/18 06:58:08;;;;;;;5.30;1.42;;;12.50;20.60;;;;;;5106416;27;34222;-76
2022/09/18 07:00:34;;;;;;;1.33;1.00;;;12.50;20.70;;;;;;5106298;27;34170;-76
2022/09/18 07:03:02;;;;;;;5.65;1.70;;;12.60;21.10;;;;;;5125559;27;34618;-76
2022/09/18 07:05:31;;;;;;;15.73;7.85;;;12.70;21.10;;;;;;5076956;27;34074;-78
2022/09/18 07:07:57;;;;;;;3.97;1.90;;;12.80;20.00;;;;;;5109887;27;34079;-76
2022/09/18 07:10:23;;;;;;;1.35;0.90;;;12.90;20.40;;;;;;5109922;27;34289;-80
2022/09/18 07:12:54;;;;;;;1.10;0.82;;;13.10;20.10;;;;;;5094025;27;36298;-76
2022/09/18 07:15:20;;;;;;;1.20;0.73;;;13.30;20.40;;;;;;5111305;27;34382;-77
2022/09/18 07:17:54;;;;;;;1.58;0.63;;;13.40;19.70;;;;;;5112073;27;34219;-82
2022/09/18 07:20:20;;;;;;;1.25;0.60;;;13.60;19.30;;;;;;5109676;27;34069;-77
2022/09/18 07:22:53;;;;;;;1.65;0.85;;;13.70;19.30;;;;;;5111531;27;36636;-81
2022/09/18 07:25:19;;;;;;;2.40;0.70;;;13.80;18.90;;;;;;5112140;27;34388;-78
2022/09/18 07:27:45;;;;;;;4.60;0.70;;;13.90;19.20;;;;;;5112343;27;34087;-78
2022/09/18 07:30:11;;;;;;;1.70;1.00;;;13.80;18.90;;;;;;5112465;27;34484;-79
2022/09/18 07:32:37;;;;;;;3.90;0.73;;;13.80;19.00;;;;;;5094677;27;36697;-77
2022/09/18 07:35:04;;;;;;;0.65;0.52;;;13.80;18.90;;;;;;5113290;27;34385;-78
2022/09/18 07:37:30;;;;;;;2.13;0.70;;;13.80;18.90;;;;;;5079536;27;34288;-78
2022/09/18 07:39:56;;;;;;;1.48;0.80;;;13.80;19.00;;;;;;5113484;27;34685;-78
2022/09/18 07:42:22;;;;;;;6.85;1.15;;;13.80;19.00;;;;;;5099047;27;35550;-82
2022/09/18 07:44:48;;;;;;;2.28;0.70;;;13.90;18.90;;;;;;5098265;27;34302;-82
2022/09/18 07:47:14;;;;;;;1.77;0.98;;;14.00;18.50;;;;;;5111612;27;34083;-75
2022/09/18 07:49:41;;;;;;;3.90;0.95;;;14.20;18.50;;;;;;5112254;27;34103;-77
2022/09/18 07:52:07;;;;;;;9.30;3.88;;;14.40;19.30;;;;;;5110037;27;36288;-77
2022/09/18 07:54:34;;;;;;;2.25;0.85;;;14.50;18.70;;;;;;5115774;27;34198;-80
2022/09/18 07:57:00;;;;;;;2.83;0.80;;;14.60;18.00;;;;;;5112850;27;34166;-77
2022/09/18 07:59:26;;;;;;;2.35;0.85;;;14.70;17.80;;;;;;5114083;27;34369;-79
2022/09/18 08:01:54;;;;;;;0.65;0.65;;;14.90;18.50;;;;;;5115237;27;35613;-80
2022/09/18 08:04:21;;;;;;;1.50;0.68;;;15.10;17.90;;;;;;5114465;27;34290;-81
2022/09/18 08:06:52;;;;;;;1.65;0.70;;;15.20;17.30;;;;;;5097729;27;34173;-77
2022/09/18 08:09:18;;;;;;;1.30;0.60;;;15.30;17.10;;;;;;5094568;27;34533;-77
2022/09/18 08:11:44;;;;;;;3.38;0.90;;;15.40;16.90;;;;;;5111274;27;35675;-77
2022/09/18 08:14:11;;;;;;;2.83;0.60;;;15.40;16.70;;;;;;5111462;27;34220;-77
2022/09/18 08:16:37;;;;;;;3.22;0.73;;;15.40;16.80;;;;;;5096652;27;34274;-78
2022/09/18 08:19:02;;;;;;;1.27;0.73;;;15.40;16.10;;;;;;5113372;27;34152;-78
2022/09/18 08:21:29;;;;;;;1.25;0.80;;;15.30;16.00;;;;;;5112393;27;35798;-77
2022/09/18 08:23:56;;;;;;;0.60;0.60;;;15.30;16.10;;;;;;5114792;27;34131;-79
2022/09/18 08:26:22;;;;;;;3.45;0.75;;;15.30;16.10;;;;;;5113266;27;34155;-77
2022/09/18 08:28:48;;;;;;;0.65;0.63;;;15.40;16.30;;;;;;5114665;27;34127;-79
2022/09/18 08:31:15;;;;;;;4.40;0.90;;;15.40;16.00;;;;;;5113724;27;36126;-78
2022/09/18 08:33:40;;;;;;;1.38;0.65;;;15.50;16.60;;;;;;5116689;27;34333;-81
2022/09/18 08:36:07;;;;;;;3.25;0.70;;;15.60;15.30;;;;;;5115722;27;34238;-80
2022/09/18 08:38:33;;;;;;;3.67;0.55;;;15.70;15.80;;;;;;5115086;27;34155;-79
2022/09/18 08:41:21;;;;;;;1.73;0.65;;;16.00;15.80;;;;;;5115036;27;36072;-79
2022/09/18 08:44:09;;;;;;;0.70;0.55;;;16.10;11.10;;;;;;5115930;27;34131;-82
2022/09/18 08:46:44;;;;;;;2.03;0.80;;;16.20;10.90;;;;;;5115782;27;34204;-79
2022/09/18 08:49:29;;;;;;;3.03;0.70;;;16.30;14.20;;;;;;5113998;27;34278;-79
2022/09/18 08:52:14;;;;;;;1.48;0.75;;;16.30;9.60;;;;;;5131639;27;35989;-81
2022/09/18 08:55:02;;;;;;;3.20;0.57;;;16.50;14.00;;;;;;5114725;27;34009;-81
2022/09/18 08:57:36;;;;;;;0.70;0.60;;;16.70;13.90;;;;;;5115214;27;34189;-79
2022/09/18 09:00:18;;;;;;;3.00;0.52;;;16.80;13.40;;;;;;5115768;27;34706;-81
2022/09/18 09:02:49;;;;;;;0.73;0.52;;;16.90;13.50;;;;;;5096095;27;35972;-82
2022/09/18 09:05:20;;;;;;;2.80;0.90;;;17.10;13.00;;;;;;5113834;27;34207;-80
2022/09/18 09:08:15;;;;;;;0.68;0.57;;;17.00;11.90;;;;;;5133723;27;34301;-79
2022/09/18 09:11:10;;;;;;;0.88;0.50;;;17.00;12.50;;;;;;5114027;27;34370;-81
2022/09/18 09:14:00;;;;;;;0.65;0.63;;;17.00;9.50;;;;;;5131193;27;34473;-79
2022/09/18 09:16:49;;;;;;;0.55;0.50;;;17.10;11.40;;;;;;5112769;27;34143;-78
2022/09/18 09:19:32;;;;;;;2.70;0.70;;;17.30;12.70;;;;;;5116074;27;34215;-78
2022/09/18 09:22:06;;;;;;;1.15;0.60;;;17.30;10.90;;;;;;5096995;27;34006;-80
2022/09/18 09:24:45;;;;;;;0.70;0.60;;;17.40;11.10;;;;;;5131486;27;34122;-79
2022/09/18 09:27:23;;;;;;;1.05;0.70;;;17.50;13.70;;;;;;5113116;27;34190;-80
2022/09/18 09:30:01;;;;;;;1.10;0.73;;;17.30;9.00;;;;;;5096619;27;34188;-79
2022/09/18 09:32:38;;;;;;;0.88;0.77;;;17.40;9.70;;;;;;5130808;27;34509;-79
2022/09/18 09:35:29;;;;;;;2.95;0.85;;;17.30;8.10;;;;;;5110689;27;34245;-80
2022/09/18 09:37:59;;;;;;;2.78;0.80;;;17.10;8.00;;;;;;5110814;27;34266;-81
2022/09/18 09:40:38;;;;;;;3.83;0.85;;;17.10;12.70;;;;;;5130469;27;34404;-80
2022/09/18 09:43:20;;;;;;;1.65;0.82;;;17.00;10.80;;;;;;5111155;27;34311;-82
2022/09/18 09:45:51;;;;;;;1.52;0.70;;;17.00;12.50;;;;;;5093750;27;35495;-82
2022/09/18 09:48:29;;;;;;;5.75;0.80;;;16.80;9.70;;;;;;5097192;27;33824;-77
2022/09/18 09:51:14;;;;;;;4.18;0.90;;;17.20;10.50;;;;;;5113846;27;34218;-81
2022/09/18 09:53:40;;;;;;;2.88;0.85;;;17.30;11.70;;;;;;5082616;27;34101;-79
2022/09/18 09:56:22;;;;;;;1.58;0.63;;;17.20;12.60;;;;;;5126731;27;34175;-81
2022/09/18 09:59:14;;;;;;;2.55;0.82;;;17.50;9.70;;;;;;5109261;28;34372;-78
2022/09/18 10:01:51;;;;;;;0.63;0.63;;;17.60;8.70;;;;;;5109789;27;34199;-78
2022/09/18 10:04:39;;;;;;;0.80;0.70;;;17.80;10.20;;;;;;5113241;27;34132;-78
2022/09/18 10:07:22;;;;;;;0.70;0.70;;;17.90;7.40;;;;;;5112843;27;35989;-79
2022/09/18 10:10:18;;;;;;;1.83;0.80;;;18.00;8.10;;;;;;5113261;27;34132;-81
2022/09/18 10:12:57;;;;;;;0.60;0.60;;;17.90;5.90;;;;;;5112678;27;34917;-83
2022/09/18 10:15:49;;;;;;;1.50;0.70;;;17.70;9.10;;;;;;5115443;27;34199;-79
2022/09/18 10:18:20;;;;;;;1.10;0.82;;;17.60;10.20;;;;;;5098050;27;35499;-79
2022/09/18 10:20:49;;;;;;;1.55;0.75;;;17.60;11.30;;;;;;5130411;27;34140;-80
2022/09/18 10:23:35;;;;;;;1.42;0.90;;;17.60;11.50;;;;;;5132264;27;34252;-77
2022/09/18 10:26:01;;;;;;;3.55;0.90;;;17.60;9.00;;;;;;5111860;27;34534;-78
2022/09/18 10:28:29;;;;;;;1.63;0.70;;;17.50;11.30;;;;;;5110964;27;35881;-78
2022/09/18 10:31:01;;;;;;;1.90;0.95;;;17.40;11.10;;;;;;5128044;27;34344;-79
2022/09/18 10:33:44;;;;;;;1.40;0.70;;;17.40;8.90;;;;;;5109679;27;34384;-79
2022/09/18 10:36:31;;;;;;;0.70;0.70;;;17.30;8.20;;;;;;5112725;27;34268;-77
2022/09/18 10:38:58;;;;;;;1.20;0.68;;;17.30;9.70;;;;;;5109561;27;35932;-78
2022/09/18 10:41:29;;;;;;;2.30;0.80;;;17.30;10.80;;;;;;5110730;27;34393;-82
2022/09/18 10:44:18;;;;;;;0.80;0.50;;;17.30;10.90;;;;;;5111682;27;34072;-78
2022/09/18 10:46:56;;;;;;;1.63;0.70;;;17.30;10.50;;;;;;5110362;27;34421;-80
2022/09/18 10:49:28;;;;;;;2.63;0.73;;;17.30;7.40;;;;;;5108577;27;35894;-78
2022/09/18 10:52:26;;;;;;;0.80;0.60;;;17.20;11.20;;;;;;5112262;27;34096;-80
2022/09/18 10:55:24;;;;;;;0.60;0.60;;;17.20;7.70;;;;;;5129548;27;34105;-78
2022/09/18 10:58:11;;;;;;;0.65;0.60;;;17.20;8.00;;;;;;5112557;27;34070;-79
2022/09/18 11:00:45;;;;;;;4.85;0.80;;;17.40;6.40;;;;;;5111563;27;35602;-78
2022/09/18 11:03:21;;;;;;;0.80;0.55;;;17.50;10.40;;;;;;5110115;27;34114;-77
2022/09/18 11:05:52;;;;;;;0.63;0.52;;;17.60;7.00;;;;;;5127629;27;34166;-78
2022/09/18 11:08:22;;;;;;;0.80;0.80;;;17.60;10.60;;;;;;5128741;27;34062;-79
2022/09/18 11:10:52;;;;;;;1.13;0.88;;;17.60;9.60;;;;;;5077144;27;35619;-80
2022/09/18 11:13:23;;;;;;;0.60;0.60;;;17.50;9.70;;;;;;5109996;27;34147;-77
2022/09/18 11:15:56;;;;;;;2.00;0.80;;;17.40;8.60;;;;;;5110934;27;34319;-78
2022/09/18 11:18:25;;;;;;;1.33;0.55;;;17.30;8.90;;;;;;5094518;27;34502;-79
2022/09/18 11:20:53;;;;;;;2.20;1.00;;;17.20;9.50;;;;;;5109795;27;36776;-78
2022/09/18 11:23:28;;;;;;;1.55;0.65;;;17.00;9.80;;;;;;5111257;27;34220;-78
2022/09/18 11:26:11;;;;;;;1.30;0.60;;;17.00;8.20;;;;;;5127062;27;34388;-77
2022/09/18 11:28:38;;;;;;;0.68;0.57;;;17.10;7.90;;;;;;5110451;27;34057;-78
2022/09/18 11:31:13;;;;;;;1.10;0.73;;;17.10;9.70;;;;;;5092490;27;35866;-77
2022/09/18 11:33:47;;;;;;;0.60;0.55;;;17.20;8.30;;;;;;5108366;27;34438;-78
2022/09/18 11:36:22;;;;;;;1.80;0.68;;;17.30;7.70;;;;;;5109231;27;34108;-77
2022/09/18 11:38:48;;;;;;;2.85;0.60;;;17.40;8.70;;;;;;5109567;27;34579;-79
2022/09/18 11:41:23;;;;;;;0.65;0.60;;;17.50;8.80;;;;;;5109107;27;36575;-77
2022/09/18 11:44:10;;;;;;;1.48;0.50;;;17.50;6.60;;;;;;5130504;27;33994;-78
2022/09/18 11:47:03;;;;;;;2.08;0.82;;;17.50;6.00;;;;;;5108712;27;34097;-80
2022/09/18 11:49:50;;;;;;;0.90;0.55;;;17.50;7.20;;;;;;5097688;27;34437;-79
2022/09/18 11:52:23;;;;;;;1.75;0.63;;;17.30;5.30;;;;;;5099407;27;35973;-78
2022/09/18 11:54:54;;;;;;;0.55;0.52;;;17.30;8.30;;;;;;5113185;27;34261;-79
2022/09/18 11:57:25;;;;;;;0.65;0.52;;;17.30;8.70;;;;;;5115071;27;34217;-78
2022/09/18 11:59:57;;;;;;;5.93;0.90;;;17.40;8.50;;;;;;5113671;27;34144;-79
2022/09/18 12:02:34;;;;;;;0.95;0.57;;;17.50;6.90;;;;;;5131194;27;34549;-78
2022/09/18 12:05:22;;;;;;;0.82;0.50;;;17.60;6.20;;;;;;5111997;27;34096;-80
2022/09/18 12:08:06;;;;;;;0.70;0.60;;;17.60;3.90;;;;;;5113480;27;33978;-81
2022/09/18 12:11:00;;;;;;;1.52;0.65;;;17.60;5.60;;;;;;5097161;27;34146;-81
2022/09/18 12:13:45;;;;;;;0.82;0.57;;;17.40;4.40;;;;;;5113792;27;35612;-80
2022/09/18 12:16:21;;;;;;;1.83;0.60;;;17.20;3.50;;;;;;5134091;27;34071;-79
2022/09/18 12:19:02;;;;;;;1.33;0.60;;;17.10;6.20;;;;;;5096820;27;34315;-78
2022/09/18 12:21:40;;;;;;;1.58;0.60;;;17.20;6.10;;;;;;5116950;27;34397;-79
2022/09/18 12:24:13;;;;;;;3.83;0.50;;;17.40;5.30;;;;;;5131871;27;34301;-81
2022/09/18 12:26:52;;;;;;;1.30;0.80;;;17.50;2.20;;;;;;5132244;27;34147;-77
2022/09/18 12:29:42;;;;;;;1.98;0.63;;;17.50;4.50;;;;;;5096564;27;34240;-78
2022/09/18 12:32:32;;;;;;;1.85;0.80;;;17.50;3.00;;;;;;5113254;27;34195;-77
2022/09/18 12:35:20;;;;;;;1.58;0.70;;;17.60;3.40;;;;;;5114471;27;36215;-78
2022/09/18 12:38:08;;;;;;;1.42;0.70;;;17.60;3.30;;;;;;5112880;27;34649;-77
2022/09/18 12:41:03;;;;;;;0.40;0.40;;;17.70;2.30;;;;;;5096372;27;34300;-80
2022/09/18 12:43:58;;;;;;;3.53;1.00;;;17.70;1.00;;;;;;5113496;27;34039;-77
2022/09/18 12:46:46;;;;;;;4.78;0.82;;;17.60;1.50;;;;;;5111754;27;36373;-81
2022/09/18 12:49:37;;;;;;;1.85;0.75;;;17.60;2.50;;;;;;5097308;27;34113;-79
2022/09/18 12:52:33;;;;;;;1.30;0.80;;;17.30;1.00;;;;;;5097136;27;34239;-79
2022/09/18 12:55:24;;;;;;;1.27;0.63;;;17.40;1.70;;;;;;5101142;27;34119;-77
2022/09/18 12:58:16;;;;;;;2.15;0.70;;;17.40;3.20;;;;;;5115169;27;34406;-77
2022/09/18 13:00:46;;;;;;;3.17;0.75;;;17.40;4.40;;;;;;5129596;27;34282;-80
2022/09/18 13:03:24;;;;;;;4.68;0.65;;;17.50;5.30;;;;;;5095823;27;34198;-81
2022/09/18 13:06:07;;;;;;;2.13;0.70;;;17.50;5.20;;;;;;5110419;27;34571;-79
2022/09/18 13:08:43;;;;;;;1.65;0.70;;;17.60;3.20;;;;;;5096611;27;35352;-78
2022/09/18 13:11:28;;;;;;;1.20;0.50;;;17.60;4.70;;;;;;5128471;27;34044;-77
2022/09/18 13:14:05;;;;;;;1.70;0.60;;;17.70;5.40;;;;;;5100355;27;34159;-80
2022/09/18 13:16:40;;;;;;;2.88;0.70;;;17.80;4.00;;;;;;5113246;27;34365;-80